sensor_id;sensor_type;location;lat;lon;timestamp;P1;durP1;ratioP1;P2;durP2;ratioP2
12275;SDS011;6200;48.144;11.424;2023-08-01T00:02:25;0.30;;;0.30;;
12275;SDS011;6200;48.144;11.424;2023-08-01T00:04:50;0.30;;;0.30;;
12275;SDS011;6200;48.144;11.424;2023-08-01T00:07:16;0.30;;;0.30;;
12275;SDS011;6200;48.144;11.424;2023-08-01T00:09:42;0.30;;;0.30;;
12275;SDS011;6200;48.144;11.424;2023-08-01T00:12:08;0.30;;;0.30;;
12275;SDS011;6200;48.144;11.424;2023-08-01T00:14:35;0.23;;;0.23;;
12275;SDS011;6200;48.144;11.424;2023-08-01T00:17:01;0.40;;;0.40;;
12275;SDS011;6200;48.144;11.424;2023-08-01T00:19:27;0.30;;;0.30;;
12275;SDS011;6200;48.144;11.424;2023-08-01T00:21:53;0.30;;;0.30;;
12275;SDS011;6200;48.144;11.424;2023-08-01T00:24:19;0.40;;;0.40;;
12275;SDS011;6200;48.144;11.424;2023-08-01T00:26:45;0.30;;;0.30;;
12275;SDS011;6200;48.144;11.424;2023-08-01T00:29:11;0.30;;;0.30;;
12275;SDS011;6200;48.144;11.424;2023-08-01T00:31:37;0.20;;;0.20;;
12275;SDS011;6200;48.144;11.424;2023-08-01T00:34:03;0.30;;;0.30;;
12275;SDS011;6200;48.144;11.424;2023-08-01T00:36:29;0.27;;;0.27;;
12275;SDS011;6200;48.144;11.424;2023-08-01T00:38:55;0.30;;;0.30;;
12275;SDS011;6200;48.144;11.424;2023-08-01T00:41:21;0.30;;;0.30;;
12275;SDS011;6200;48.144;11.424;2023-08-01T00:43:46;0.30;;;0.30;;
12275;SDS011;6200;48.144;11.424;2023-08-01T00:46:12;0.30;;;0.30;;
12275;SDS011;6200;48.144;11.424;2023-08-01T00:48:38;0.30;;;0.30;;
12275;SDS011;6200;48.144;11.424;2023-08-01T00:51:05;0.30;;;0.30;;
12275;SDS011;6200;48.144;11.424;2023-08-01T00:53:32;0.30;;;0.30;;
12275;SDS011;6200;48.144;11.424;2023-08-01T00:55:58;0.30;;;0.30;;
12275;SDS011;6200;48.144;11.424;2023-08-01T00:58:24;0.30;;;0.30;;
12275;SDS011;6200;48.144;11.424;2023-08-01T01:00:50;0.30;;;0.30;;
12275;SDS011;6200;48.144;11.424;2023-08-01T01:03:15;0.30;;;0.30;;
12275;SDS011;6200;48.144;11.424;2023-08-01T01:08:48;0.30;;;0.30;;
12275;SDS011;6200;48.144;11.424;2023-08-01T01:11:14;0.30;;;0.30;;
12275;SDS011;6200;48.144;11.424;2023-08-01T01:13:40;0.30;;;0.30;;
12275;SDS011;6200;48.144;11.424;2023-08-01T01:16:05;0.30;;;0.30;;
12275;SDS011;6200;48.144;11.424;2023-08-01T01:18:31;0.30;;;0.30;;
12275;SDS011;6200;48.144;11.424;2023-08-01T01:20:57;0.50;;;0.50;;
12275;SDS011;6200;48.144;11.424;2023-08-01T01:23:23;0.40;;;0.40;;
12275;SDS011;6200;48.144;11.424;2023-08-01T01:25:51;0.40;;;0.40;;
12275;SDS011;6200;48.144;11.424;2023-08-01T01:28:18;0.30;;;0.30;;
12275;SDS011;6200;48.144;11.424;2023-08-01T01:30:44;0.30;;;0.30;;
12275;SDS011;6200;48.144;11.424;2023-08-01T01:33:11;0.30;;;0.30;;
12275;SDS011;6200;48.144;11.424;2023-08-01T01:35:37;0.30;;;0.30;;
12275;SDS011;6200;48.144;11.424;2023-08-01T01:38:03;0.30;;;0.30;;
12275;SDS011;6200;48.144;11.424;2023-08-01T01:40:30;0.30;;;0.30;;
12275;SDS011;6200;48.144;11.424;2023-08-01T01:42:56;0.33;;;0.33;;
12275;SDS011;6200;48.144;11.424;2023-08-01T01:45:22;0.30;;;0.30;;
12275;SDS011;6200;48.144;11.424;2023-08-01T01:47:47;0.30;;;0.30;;
12275;SDS011;6200;48.144;11.424;2023-08-01T01:50:13;0.30;;;0.30;;
12275;SDS011;6200;48.144;11.424;2023-08-01T01:52:39;0.30;;;0.30;;
12275;SDS011;6200;48.144;11.424;2023-08-01T01:55:05;0.30;;;0.30;;
12275;SDS011;6200;48.144;11.424;2023-08-01T01:57:31;0.20;;;0.20;;
12275;SDS011;6200;48.144;11.424;2023-08-01T01:59:57;0.30;;;0.30;;
12275;SDS011;6200;48.144;11.424;2023-08-01T02:02:23;0.30;;;0.30;;
12275;SDS011;6200;48.144;11.424;2023-08-01T02:04:49;0.30;;;0.30;;
12275;SDS011;6200;48.144;11.424;2023-08-01T02:07:15;0.27;;;0.27;;
12275;SDS011;6200;48.144;11.424;2023-08-01T02:09:41;0.30;;;0.30;;
12275;SDS011;6200;48.144;11.424;2023-08-01T02:12:06;0.30;;;0.30;;
12275;SDS011;6200;48.144;11.424;2023-08-01T02:14:34;0.30;;;0.30;;
12275;SDS011;6200;48.144;11.424;2023-08-01T02:17:00;0.30;;;0.30;;
12275;SDS011;6200;48.144;11.424;2023-08-01T02:19:26;0.30;;;0.30;;
12275;SDS011;6200;48.144;11.424;2023-08-01T02:21:51;0.20;;;0.20;;
12275;SDS011;6200;48.144;11.424;2023-08-01T02:24:18;0.30;;;0.30;;
12275;SDS011;6200;48.144;11.424;2023-08-01T02:26:43;0.20;;;0.20;;
12275;SDS011;6200;48.144;11.424;2023-08-01T02:29:09;0.30;;;0.30;;
12275;SDS011;6200;48.144;11.424;2023-08-01T02:31:35;0.20;;;0.20;;
12275;SDS011;6200;48.144;11.424;2023-08-01T02:34:01;0.20;;;0.20;;
12275;SDS011;6200;48.144;11.424;2023-08-01T02:36:27;0.20;;;0.20;;
12275;SDS011;6200;48.144;11.424;2023-08-01T02:38:53;0.20;;;0.20;;
12275;SDS011;6200;48.144;11.424;2023-08-01T02:41:19;0.30;;;0.30;;
12275;SDS011;6200;48.144;11.424;2023-08-01T02:43:44;0.20;;;0.20;;
12275;SDS011;6200;48.144;11.424;2023-08-01T02:46:09;0.23;;;0.23;;
12275;SDS011;6200;48.144;11.424;2023-08-01T02:48:35;0.20;;;0.20;;
12275;SDS011;6200;48.144;11.424;2023-08-01T02:51:01;0.30;;;0.30;;
12275;SDS011;6200;48.144;11.424;2023-08-01T02:53:27;0.20;;;0.20;;
12275;SDS011;6200;48.144;11.424;2023-08-01T02:55:52;0.20;;;0.20;;
12275;SDS011;6200;48.144;11.424;2023-08-01T02:58:18;0.20;;;0.20;;
12275;SDS011;6200;48.144;11.424;2023-08-01T03:00:44;0.20;;;0.20;;
12275;SDS011;6200;48.144;11.424;2023-08-01T03:03:12;0.20;;;0.20;;
12275;SDS011;6200;48.144;11.424;2023-08-01T03:05:38;0.30;;;0.30;;
12275;SDS011;6200;48.144;11.424;2023-08-01T03:08:04;0.20;;;0.20;;
12275;SDS011;6200;48.144;11.424;2023-08-01T03:10:30;0.20;;;0.20;;
12275;SDS011;6200;48.144;11.424;2023-08-01T03:12:55;0.20;;;0.20;;
12275;SDS011;6200;48.144;11.424;2023-08-01T03:15:21;0.20;;;0.20;;
12275;SDS011;6200;48.144;11.424;2023-08-01T03:17:46;0.20;;;0.20;;
12275;SDS011;6200;48.144;11.424;2023-08-01T03:20:12;0.20;;;0.20;;
12275;SDS011;6200;48.144;11.424;2023-08-01T03:22:38;0.20;;;0.20;;
12275;SDS011;6200;48.144;11.424;2023-08-01T03:25:05;0.20;;;0.20;;
12275;SDS011;6200;48.144;11.424;2023-08-01T03:27:34;0.20;;;0.20;;
12275;SDS011;6200;48.144;11.424;2023-08-01T03:30:00;0.30;;;0.30;;
12275;SDS011;6200;48.144;11.424;2023-08-01T03:32:26;0.20;;;0.20;;
12275;SDS011;6200;48.144;11.424;2023-08-01T03:34:52;0.20;;;0.20;;
12275;SDS011;6200;48.144;11.424;2023-08-01T03:37:18;0.20;;;0.20;;
12275;SDS011;6200;48.144;11.424;2023-08-01T03:39:44;0.30;;;0.30;;
12275;SDS011;6200;48.144;11.424;2023-08-01T03:42:10;0.40;;;0.40;;
12275;SDS011;6200;48.144;11.424;2023-08-01T03:44:36;0.20;;;0.20;;
12275;SDS011;6200;48.144;11.424;2023-08-01T03:47:01;0.30;;;0.30;;
12275;SDS011;6200;48.144;11.424;2023-08-01T03:49:27;0.30;;;0.30;;
12275;SDS011;6200;48.144;11.424;2023-08-01T03:51:53;0.30;;;0.30;;
12275;SDS011;6200;48.144;11.424;2023-08-01T03:54:19;0.40;;;0.40;;
12275;SDS011;6200;48.144;11.424;2023-08-01T03:56:44;0.30;;;0.30;;
12275;SDS011;6200;48.144;11.424;2023-08-01T03:59:11;0.20;;;0.20;;
12275;SDS011;6200;48.144;11.424;2023-08-01T04:01:38;0.30;;;0.30;;
12275;SDS011;6200;48.144;11.424;2023-08-01T04:04:04;0.30;;;0.30;;
12275;SDS011;6200;48.144;11.424;2023-08-01T04:06:30;0.30;;;0.30;;
12275;SDS011;6200;48.144;11.424;2023-08-01T04:08:56;0.30;;;0.30;;
12275;SDS011;6200;48.144;11.424;2023-08-01T04:11:22;0.20;;;0.20;;
12275;SDS011;6200;48.144;11.424;2023-08-01T04:13:48;0.30;;;0.30;;
12275;SDS011;6200;48.144;11.424;2023-08-01T04:16:13;0.30;;;0.30;;
12275;SDS011;6200;48.144;11.424;2023-08-01T04:18:39;0.20;;;0.20;;
12275;SDS011;6200;48.144;11.424;2023-08-01T04:21:06;0.30;;;0.30;;
12275;SDS011;6200;48.144;11.424;2023-08-01T04:23:33;0.30;;;0.30;;
12275;SDS011;6200;48.144;11.424;2023-08-01T04:25:58;0.57;;;0.57;;
12275;SDS011;6200;48.144;11.424;2023-08-01T04:28:24;0.30;;;0.30;;
12275;SDS011;6200;48.144;11.424;2023-08-01T04:30:50;0.33;;;0.33;;
12275;SDS011;6200;48.144;11.424;2023-08-01T04:33:16;0.50;;;0.50;;
12275;SDS011;6200;48.144;11.424;2023-08-01T04:35:42;0.40;;;0.40;;
12275;SDS011;6200;48.144;11.424;2023-08-01T04:38:07;0.20;;;0.20;;
12275;SDS011;6200;48.144;11.424;2023-08-01T04:40:36;0.27;;;0.27;;
12275;SDS011;6200;48.144;11.424;2023-08-01T04:43:02;0.30;;;0.30;;
12275;SDS011;6200;48.144;11.424;2023-08-01T04:45:28;0.30;;;0.30;;
12275;SDS011;6200;48.144;11.424;2023-08-01T04:47:53;0.30;;;0.30;;
12275;SDS011;6200;48.144;11.424;2023-08-01T04:50:19;0.30;;;0.30;;
12275;SDS011;6200;48.144;11.424;2023-08-01T04:52:45;0.23;;;0.23;;
12275;SDS011;6200;48.144;11.424;2023-08-01T04:55:10;0.30;;;0.30;;
12275;SDS011;6200;48.144;11.424;2023-08-01T04:57:36;0.30;;;0.30;;
12275;SDS011;6200;48.144;11.424;2023-08-01T05:00:02;0.20;;;0.20;;
12275;SDS011;6200;48.144;11.424;2023-08-01T05:02:29;0.30;;;0.30;;
12275;SDS011;6200;48.144;11.424;2023-08-01T05:04:54;0.30;;;0.30;;
12275;SDS011;6200;48.144;11.424;2023-08-01T05:07:20;0.20;;;0.20;;
12275;SDS011;6200;48.144;11.424;2023-08-01T05:09:46;0.30;;;0.30;;
12275;SDS011;6200;48.144;11.424;2023-08-01T05:12:12;0.20;;;0.20;;
12275;SDS011;6200;48.144;11.424;2023-08-01T05:14:38;0.30;;;0.30;;
12275;SDS011;6200;48.144;11.424;2023-08-01T05:17:04;0.40;;;0.40;;
12275;SDS011;6200;48.144;11.424;2023-08-01T05:19:30;0.30;;;0.30;;
12275;SDS011;6200;48.144;11.424;2023-08-01T05:21:55;0.20;;;0.20;;
12275;SDS011;6200;48.144;11.424;2023-08-01T05:24:21;0.30;;;0.30;;
12275;SDS011;6200;48.144;11.424;2023-08-01T05:26:47;0.20;;;0.20;;
12275;SDS011;6200;48.144;11.424;2023-08-01T05:29:12;0.20;;;0.20;;
12275;SDS011;6200;48.144;11.424;2023-08-01T05:31:38;0.20;;;0.20;;
12275;SDS011;6200;48.144;11.424;2023-08-01T05:34:04;0.20;;;0.20;;
12275;SDS011;6200;48.144;11.424;2023-08-01T05:36:30;0.20;;;0.20;;
12275;SDS011;6200;48.144;11.424;2023-08-01T05:38:56;0.30;;;0.30;;
12275;SDS011;6200;48.144;11.424;2023-08-01T05:41:22;0.20;;;0.20;;
12275;SDS011;6200;48.144;11.424;2023-08-01T05:43:48;0.20;;;0.20;;
12275;SDS011;6200;48.144;11.424;2023-08-01T05:46:14;0.20;;;0.20;;
12275;SDS011;6200;48.144;11.424;2023-08-01T05:48:40;0.20;;;0.20;;
12275;SDS011;6200;48.144;11.424;2023-08-01T05:51:06;0.20;;;0.20;;
12275;SDS011;6200;48.144;11.424;2023-08-01T05:53:32;0.20;;;0.20;;
12275;SDS011;6200;48.144;11.424;2023-08-01T05:55:57;0.20;;;0.20;;
12275;SDS011;6200;48.144;11.424;2023-08-01T05:58:23;0.20;;;0.20;;
12275;SDS011;6200;48.144;11.424;2023-08-01T06:00:49;0.20;;;0.20;;
12275;SDS011;6200;48.144;11.424;2023-08-01T06:03:15;0.20;;;0.20;;
12275;SDS011;6200;48.144;11.424;2023-08-01T06:05:41;0.20;;;0.20;;
12275;SDS011;6200;48.144;11.424;2023-08-01T06:08:07;0.20;;;0.20;;
12275;SDS011;6200;48.144;11.424;2023-08-01T06:10:34;0.20;;;0.20;;
12275;SDS011;6200;48.144;11.424;2023-08-01T06:13:00;0.20;;;0.20;;
12275;SDS011;6200;48.144;11.424;2023-08-01T06:15:26;0.20;;;0.20;;
12275;SDS011;6200;48.144;11.424;2023-08-01T06:17:51;0.20;;;0.20;;
12275;SDS011;6200;48.144;11.424;2023-08-01T06:20:17;0.20;;;0.20;;
12275;SDS011;6200;48.144;11.424;2023-08-01T06:22:43;0.20;;;0.20;;
12275;SDS011;6200;48.144;11.424;2023-08-01T06:25:09;0.20;;;0.20;;
12275;SDS011;6200;48.144;11.424;2023-08-01T06:27:34;0.20;;;0.20;;
12275;SDS011;6200;48.144;11.424;2023-08-01T06:30:00;0.20;;;0.20;;
12275;SDS011;6200;48.144;11.424;2023-08-01T06:32:26;0.20;;;0.20;;
12275;SDS011;6200;48.144;11.424;2023-08-01T06:34:51;0.20;;;0.20;;
12275;SDS011;6200;48.144;11.424;2023-08-01T06:37:17;0.20;;;0.20;;
12275;SDS011;6200;48.144;11.424;2023-08-01T06:39:43;0.20;;;0.20;;
12275;SDS011;6200;48.144;11.424;2023-08-01T06:42:09;0.30;;;0.30;;
12275;SDS011;6200;48.144;11.424;2023-08-01T06:44:35;0.30;;;0.30;;
12275;SDS011;6200;48.144;11.424;2023-08-01T06:47:01;0.27;;;0.27;;
12275;SDS011;6200;48.144;11.424;2023-08-01T06:49:27;0.27;;;0.27;;
12275;SDS011;6200;48.144;11.424;2023-08-01T06:51:53;0.20;;;0.20;;
12275;SDS011;6200;48.144;11.424;2023-08-01T06:54:19;0.20;;;0.20;;
12275;SDS011;6200;48.144;11.424;2023-08-01T06:56:44;0.27;;;0.27;;
12275;SDS011;6200;48.144;11.424;2023-08-01T06:59:13;0.20;;;0.20;;
12275;SDS011;6200;48.144;11.424;2023-08-01T07:01:39;0.30;;;0.30;;
12275;SDS011;6200;48.144;11.424;2023-08-01T07:04:05;0.20;;;0.20;;
12275;SDS011;6200;48.144;11.424;2023-08-01T07:06:31;0.20;;;0.20;;
12275;SDS011;6200;48.144;11.424;2023-08-01T07:08:57;0.30;;;0.30;;
12275;SDS011;6200;48.144;11.424;2023-08-01T07:11:23;0.20;;;0.20;;
12275;SDS011;6200;48.144;11.424;2023-08-01T07:13:48;0.20;;;0.20;;
12275;SDS011;6200;48.144;11.424;2023-08-01T07:16:14;0.20;;;0.20;;
12275;SDS011;6200;48.144;11.424;2023-08-01T07:18:40;0.20;;;0.20;;
12275;SDS011;6200;48.144;11.424;2023-08-01T07:21:06;0.20;;;0.20;;
12275;SDS011;6200;48.144;11.424;2023-08-01T07:23:33;0.20;;;0.20;;
12275;SDS011;6200;48.144;11.424;2023-08-01T07:25:59;0.20;;;0.20;;
12275;SDS011;6200;48.144;11.424;2023-08-01T07:28:25;0.20;;;0.20;;
12275;SDS011;6200;48.144;11.424;2023-08-01T07:30:57;0.20;;;0.20;;
12275;SDS011;6200;48.144;11.424;2023-08-01T07:33:24;0.20;;;0.20;;
12275;SDS011;6200;48.144;11.424;2023-08-01T07:35:50;0.20;;;0.20;;
12275;SDS011;6200;48.144;11.424;2023-08-01T07:38:16;0.20;;;0.20;;
12275;SDS011;6200;48.144;11.424;2023-08-01T07:40:42;0.30;;;0.30;;
12275;SDS011;6200;48.144;11.424;2023-08-01T07:43:08;0.20;;;0.20;;
12275;SDS011;6200;48.144;11.424;2023-08-01T07:45:34;0.20;;;0.20;;
12275;SDS011;6200;48.144;11.424;2023-08-01T07:48:00;0.23;;;0.23;;
12275;SDS011;6200;48.144;11.424;2023-08-01T07:50:26;0.20;;;0.20;;
12275;SDS011;6200;48.144;11.424;2023-08-01T07:52:52;0.20;;;0.20;;
12275;SDS011;6200;48.144;11.424;2023-08-01T07:55:18;0.20;;;0.20;;
12275;SDS011;6200;48.144;11.424;2023-08-01T07:57:45;0.30;;;0.30;;
12275;SDS011;6200;48.144;11.424;2023-08-01T08:00:11;0.20;;;0.20;;
12275;SDS011;6200;48.144;11.424;2023-08-01T08:02:37;0.20;;;0.20;;
12275;SDS011;6200;48.144;11.424;2023-08-01T08:05:03;0.20;;;0.20;;
12275;SDS011;6200;48.144;11.424;2023-08-01T08:07:30;0.20;;;0.20;;
12275;SDS011;6200;48.144;11.424;2023-08-01T08:09:56;0.20;;;0.20;;
12275;SDS011;6200;48.144;11.424;2023-08-01T08:12:22;0.20;;;0.20;;
12275;SDS011;6200;48.144;11.424;2023-08-01T08:14:48;0.20;;;0.20;;
12275;SDS011;6200;48.144;11.424;2023-08-01T08:17:14;0.30;;;0.30;;
12275;SDS011;6200;48.144;11.424;2023-08-01T08:19:40;0.30;;;0.30;;
12275;SDS011;6200;48.144;11.424;2023-08-01T08:22:06;0.20;;;0.20;;
12275;SDS011;6200;48.144;11.424;2023-08-01T08:24:31;0.23;;;0.23;;
12275;SDS011;6200;48.144;11.424;2023-08-01T08:26:57;0.20;;;0.20;;
12275;SDS011;6200;48.144;11.424;2023-08-01T08:29:23;0.30;;;0.30;;
12275;SDS011;6200;48.144;11.424;2023-08-01T08:31:49;0.30;;;0.30;;
12275;SDS011;6200;48.144;11.424;2023-08-01T08:34:15;0.20;;;0.20;;
12275;SDS011;6200;48.144;11.424;2023-08-01T08:36:40;0.30;;;0.30;;
12275;SDS011;6200;48.144;11.424;2023-08-01T08:39:06;0.30;;;0.30;;
12275;SDS011;6200;48.144;11.424;2023-08-01T08:41:35;0.23;;;0.23;;
12275;SDS011;6200;48.144;11.424;2023-08-01T08:44:07;0.30;;;0.30;;
12275;SDS011;6200;48.144;11.424;2023-08-01T08:46:33;0.40;;;0.40;;
12275;SDS011;6200;48.144;11.424;2023-08-01T08:49:05;0.30;;;0.30;;
12275;SDS011;6200;48.144;11.424;2023-08-01T08:51:32;0.30;;;0.30;;
12275;SDS011;6200;48.144;11.424;2023-08-01T08:53:58;0.20;;;0.20;;
12275;SDS011;6200;48.144;11.424;2023-08-01T08:56:25;0.20;;;0.20;;
12275;SDS011;6200;48.144;11.424;2023-08-01T08:58:53;0.20;;;0.20;;
12275;SDS011;6200;48.144;11.424;2023-08-01T09:01:19;0.20;;;0.20;;
12275;SDS011;6200;48.144;11.424;2023-08-01T09:03:45;0.20;;;0.20;;
12275;SDS011;6200;48.144;11.424;2023-08-01T09:06:12;0.20;;;0.20;;
12275;SDS011;6200;48.144;11.424;2023-08-01T09:08:47;0.20;;;0.20;;
12275;SDS011;6200;48.144;11.424;2023-08-01T09:11:16;0.20;;;0.20;;
12275;SDS011;6200;48.144;11.424;2023-08-01T09:13:42;0.20;;;0.20;;
12275;SDS011;6200;48.144;11.424;2023-08-01T09:16:08;0.20;;;0.20;;
12275;SDS011;6200;48.144;11.424;2023-08-01T09:18:35;0.20;;;0.20;;
12275;SDS011;6200;48.144;11.424;2023-08-01T09:21:11;0.20;;;0.20;;
12275;SDS011;6200;48.144;11.424;2023-08-01T09:23:37;0.20;;;0.20;;
12275;SDS011;6200;48.144;11.424;2023-08-01T09:26:11;0.20;;;0.20;;
12275;SDS011;6200;48.144;11.424;2023-08-01T09:28:41;0.20;;;0.20;;
12275;SDS011;6200;48.144;11.424;2023-08-01T09:31:07;0.20;;;0.20;;
12275;SDS011;6200;48.144;11.424;2023-08-01T09:33:41;0.20;;;0.20;;
12275;SDS011;6200;48.144;11.424;2023-08-01T09:36:08;0.20;;;0.20;;
12275;SDS011;6200;48.144;11.424;2023-08-01T09:38:34;0.20;;;0.20;;
12275;SDS011;6200;48.144;11.424;2023-08-01T09:41:00;0.20;;;0.20;;
12275;SDS011;6200;48.144;11.424;2023-08-01T09:43:32;0.20;;;0.20;;
12275;SDS011;6200;48.144;11.424;2023-08-01T09:46:02;0.20;;;0.20;;
12275;SDS011;6200;48.144;11.424;2023-08-01T09:48:28;0.20;;;0.20;;
12275;SDS011;6200;48.144;11.424;2023-08-01T09:51:08;0.20;;;0.20;;
12275;SDS011;6200;48.144;11.424;2023-08-01T09:53:36;0.23;;;0.23;;
12275;SDS011;6200;48.144;11.424;2023-08-01T09:56:15;0.20;;;0.20;;
12275;SDS011;6200;48.144;11.424;2023-08-01T09:58:51;0.20;;;0.20;;
12275;SDS011;6200;48.144;11.424;2023-08-01T10:01:20;0.20;;;0.20;;
12275;SDS011;6200;48.144;11.424;2023-08-01T10:03:49;0.30;;;0.30;;
12275;SDS011;6200;48.144;11.424;2023-08-01T10:06:19;0.20;;;0.20;;
12275;SDS011;6200;48.144;11.424;2023-08-01T10:08:49;0.20;;;0.20;;
12275;SDS011;6200;48.144;11.424;2023-08-01T10:11:19;0.20;;;0.20;;
12275;SDS011;6200;48.144;11.424;2023-08-01T10:13:46;0.20;;;0.20;;
12275;SDS011;6200;48.144;11.424;2023-08-01T10:16:13;0.20;;;0.20;;
12275;SDS011;6200;48.144;11.424;2023-08-01T10:18:39;0.30;;;0.30;;
12275;SDS011;6200;48.144;11.424;2023-08-01T10:21:06;0.30;;;0.30;;
12275;SDS011;6200;48.144;11.424;2023-08-01T10:23:34;0.30;;;0.30;;
12275;SDS011;6200;48.144;11.424;2023-08-01T10:26:00;0.20;;;0.20;;
12275;SDS011;6200;48.144;11.424;2023-08-01T10:28:32;0.23;;;0.23;;
12275;SDS011;6200;48.144;11.424;2023-08-01T10:31:15;0.20;;;0.20;;
12275;SDS011;6200;48.144;11.424;2023-08-01T10:33:47;0.20;;;0.20;;
12275;SDS011;6200;48.144;11.424;2023-08-01T10:36:14;0.23;;;0.23;;
12275;SDS011;6200;48.144;11.424;2023-08-01T10:38:47;0.30;;;0.30;;
12275;SDS011;6200;48.144;11.424;2023-08-01T10:41:33;0.20;;;0.20;;
12275;SDS011;6200;48.144;11.424;2023-08-01T10:44:13;0.20;;;0.20;;
12275;SDS011;6200;48.144;11.424;2023-08-01T10:49:12;0.20;;;0.20;;
12275;SDS011;6200;48.144;11.424;2023-08-01T10:51:38;0.20;;;0.20;;
12275;SDS011;6200;48.144;11.424;2023-08-01T10:54:04;0.20;;;0.20;;
12275;SDS011;6200;48.144;11.424;2023-08-01T10:56:30;0.20;;;0.20;;
12275;SDS011;6200;48.144;11.424;2023-08-01T10:58:56;0.20;;;0.20;;
12275;SDS011;6200;48.144;11.424;2023-08-01T11:01:23;0.20;;;0.20;;
12275;SDS011;6200;48.144;11.424;2023-08-01T11:03:51;0.20;;;0.20;;
12275;SDS011;6200;48.144;11.424;2023-08-01T11:06:17;0.20;;;0.20;;
12275;SDS011;6200;48.144;11.424;2023-08-01T11:08:43;0.20;;;0.20;;
12275;SDS011;6200;48.144;11.424;2023-08-01T11:11:13;0.20;;;0.20;;
12275;SDS011;6200;48.144;11.424;2023-08-01T11:13:39;0.20;;;0.20;;
12275;SDS011;6200;48.144;11.424;2023-08-01T11:16:05;0.20;;;0.20;;
12275;SDS011;6200;48.144;11.424;2023-08-01T11:18:43;0.20;;;0.20;;
12275;SDS011;6200;48.144;11.424;2023-08-01T11:21:09;0.20;;;0.20;;
12275;SDS011;6200;48.144;11.424;2023-08-01T11:23:35;0.20;;;0.20;;
12275;SDS011;6200;48.144;11.424;2023-08-01T11:26:07;0.20;;;0.20;;
12275;SDS011;6200;48.144;11.424;2023-08-01T11:28:36;0.20;;;0.10;;
12275;SDS011;6200;48.144;11.424;2023-08-01T11:31:10;0.20;;;0.20;;
12275;SDS011;6200;48.144;11.424;2023-08-01T11:33:36;0.20;;;0.20;;
12275;SDS011;6200;48.144;11.424;2023-08-01T11:36:02;0.20;;;0.20;;
12275;SDS011;6200;48.144;11.424;2023-08-01T11:38:29;0.20;;;0.20;;
12275;SDS011;6200;48.144;11.424;2023-08-01T11:40:56;0.30;;;0.30;;
12275;SDS011;6200;48.144;11.424;2023-08-01T11:43:22;0.20;;;0.20;;
12275;SDS011;6200;48.144;11.424;2023-08-01T11:45:49;0.20;;;0.20;;
12275;SDS011;6200;48.144;11.424;2023-08-01T11:48:20;0.20;;;0.20;;
12275;SDS011;6200;48.144;11.424;2023-08-01T11:50:47;0.30;;;0.30;;
12275;SDS011;6200;48.144;11.424;2023-08-01T11:53:19;0.20;;;0.20;;
12275;SDS011;6200;48.144;11.424;2023-08-01T11:55:46;0.20;;;0.20;;
12275;SDS011;6200;48.144;11.424;2023-08-01T11:58:12;0.20;;;0.20;;
12275;SDS011;6200;48.144;11.424;2023-08-01T12:00:39;0.20;;;0.20;;
12275;SDS011;6200;48.144;11.424;2023-08-01T12:03:06;0.20;;;0.20;;
12275;SDS011;6200;48.144;11.424;2023-08-01T12:05:37;0.20;;;0.20;;
12275;SDS011;6200;48.144;11.424;2023-08-01T12:08:13;0.20;;;0.20;;
12275;SDS011;6200;48.144;11.424;2023-08-01T12:10:40;0.20;;;0.20;;
12275;SDS011;6200;48.144;11.424;2023-08-01T12:13:06;0.20;;;0.20;;
12275;SDS011;6200;48.144;11.424;2023-08-01T12:15:43;0.20;;;0.20;;
12275;SDS011;6200;48.144;11.424;2023-08-01T12:18:09;0.30;;;0.30;;
12275;SDS011;6200;48.144;11.424;2023-08-01T12:20:35;0.20;;;0.20;;
12275;SDS011;6200;48.144;11.424;2023-08-01T12:23:00;0.20;;;0.20;;
12275;SDS011;6200;48.144;11.424;2023-08-01T12:25:27;0.20;;;0.20;;
12275;SDS011;6200;48.144;11.424;2023-08-01T12:27:52;0.30;;;0.30;;
12275;SDS011;6200;48.144;11.424;2023-08-01T12:30:18;0.20;;;0.20;;
12275;SDS011;6200;48.144;11.424;2023-08-01T12:32:44;0.20;;;0.20;;
12275;SDS011;6200;48.144;11.424;2023-08-01T12:35:10;0.30;;;0.30;;
12275;SDS011;6200;48.144;11.424;2023-08-01T12:37:36;0.20;;;0.20;;
12275;SDS011;6200;48.144;11.424;2023-08-01T12:40:02;0.20;;;0.20;;
12275;SDS011;6200;48.144;11.424;2023-08-01T12:42:29;0.20;;;0.20;;
12275;SDS011;6200;48.144;11.424;2023-08-01T12:44:54;0.30;;;0.30;;
12275;SDS011;6200;48.144;11.424;2023-08-01T12:47:20;0.20;;;0.20;;
12275;SDS011;6200;48.144;11.424;2023-08-01T12:49:46;0.20;;;0.20;;
12275;SDS011;6200;48.144;11.424;2023-08-01T12:52:21;0.30;;;0.30;;
12275;SDS011;6200;48.144;11.424;2023-08-01T12:54:48;0.30;;;0.30;;
12275;SDS011;6200;48.144;11.424;2023-08-01T12:57:14;0.30;;;0.30;;
12275;SDS011;6200;48.144;11.424;2023-08-01T12:59:40;0.30;;;0.30;;
12275;SDS011;6200;48.144;11.424;2023-08-01T13:02:06;0.30;;;0.30;;
12275;SDS011;6200;48.144;11.424;2023-08-01T13:04:33;0.30;;;0.30;;
12275;SDS011;6200;48.144;11.424;2023-08-01T13:06:59;0.30;;;0.30;;
12275;SDS011;6200;48.144;11.424;2023-08-01T13:09:25;0.30;;;0.30;;
12275;SDS011;6200;48.144;11.424;2023-08-01T13:11:51;0.25;;;0.25;;
12275;SDS011;6200;48.144;11.424;2023-08-01T13:14:18;0.30;;;0.30;;
12275;SDS011;6200;48.144;11.424;2023-08-01T13:16:44;0.30;;;0.30;;
12275;SDS011;6200;48.144;11.424;2023-08-01T13:19:09;0.30;;;0.30;;
12275;SDS011;6200;48.144;11.424;2023-08-01T13:21:35;0.30;;;0.30;;
12275;SDS011;6200;48.144;11.424;2023-08-01T13:24:01;0.30;;;0.30;;
12275;SDS011;6200;48.144;11.424;2023-08-01T13:26:31;0.40;;;0.40;;
12275;SDS011;6200;48.144;11.424;2023-08-01T13:28:57;0.40;;;0.40;;
12275;SDS011;6200;48.144;11.424;2023-08-01T13:31:23;0.40;;;0.40;;
12275;SDS011;6200;48.144;11.424;2023-08-01T13:33:49;0.40;;;0.40;;
12275;SDS011;6200;48.144;11.424;2023-08-01T13:36:17;0.70;;;0.70;;
12275;SDS011;6200;48.144;11.424;2023-08-01T13:38:43;0.50;;;0.50;;
12275;SDS011;6200;48.144;11.424;2023-08-01T13:41:09;0.40;;;0.40;;
12275;SDS011;6200;48.144;11.424;2023-08-01T13:43:35;0.43;;;0.43;;
12275;SDS011;6200;48.144;11.424;2023-08-01T13:46:09;0.57;;;0.57;;
12275;SDS011;6200;48.144;11.424;2023-08-01T13:48:39;0.52;;;0.52;;
12275;SDS011;6200;48.144;11.424;2023-08-01T13:51:06;0.40;;;0.40;;
12275;SDS011;6200;48.144;11.424;2023-08-01T13:53:31;0.30;;;0.30;;
12275;SDS011;6200;48.144;11.424;2023-08-01T13:55:58;0.40;;;0.40;;
12275;SDS011;6200;48.144;11.424;2023-08-01T13:58:24;0.40;;;0.40;;
12275;SDS011;6200;48.144;11.424;2023-08-01T14:00:50;0.30;;;0.30;;
12275;SDS011;6200;48.144;11.424;2023-08-01T14:03:16;0.35;;;0.35;;
12275;SDS011;6200;48.144;11.424;2023-08-01T14:05:42;0.50;;;0.50;;
12275;SDS011;6200;48.144;11.424;2023-08-01T14:08:08;0.47;;;0.47;;
12275;SDS011;6200;48.144;11.424;2023-08-01T14:10:34;0.38;;;0.38;;
12275;SDS011;6200;48.144;11.424;2023-08-01T14:13:00;0.50;;;0.50;;
12275;SDS011;6200;48.144;11.424;2023-08-01T14:15:26;0.50;;;0.50;;
12275;SDS011;6200;48.144;11.424;2023-08-01T14:17:51;0.30;;;0.30;;
12275;SDS011;6200;48.144;11.424;2023-08-01T14:20:18;0.30;;;0.30;;
12275;SDS011;6200;48.144;11.424;2023-08-01T14:22:44;0.30;;;0.30;;
12275;SDS011;6200;48.144;11.424;2023-08-01T14:25:11;0.20;;;0.20;;
12275;SDS011;6200;48.144;11.424;2023-08-01T14:27:36;0.20;;;0.20;;
12275;SDS011;6200;48.144;11.424;2023-08-01T14:30:02;0.30;;;0.30;;
12275;SDS011;6200;48.144;11.424;2023-08-01T14:32:30;0.20;;;0.20;;
12275;SDS011;6200;48.144;11.424;2023-08-01T14:34:56;0.20;;;0.20;;
12275;SDS011;6200;48.144;11.424;2023-08-01T14:37:22;0.20;;;0.20;;
12275;SDS011;6200;48.144;11.424;2023-08-01T14:39:50;0.20;;;0.20;;
12275;SDS011;6200;48.144;11.424;2023-08-01T14:42:16;0.20;;;0.20;;
12275;SDS011;6200;48.144;11.424;2023-08-01T14:44:42;0.20;;;0.20;;
12275;SDS011;6200;48.144;11.424;2023-08-01T14:47:08;0.30;;;0.30;;
12275;SDS011;6200;48.144;11.424;2023-08-01T14:49:34;0.20;;;0.20;;
12275;SDS011;6200;48.144;11.424;2023-08-01T14:52:00;0.23;;;0.23;;